Time;durP1;ratioP1;P1;durP2;ratioP2;P2;SDS_P1;SDS_P2;PMS_P1;PMS_P2;Temp;Humidity;BMP_temperature;BMP_pressure;BME280_temperature;BME280_humidity;BME280_pressure;Samples;Min_cycle;Max_cycle;Signal;HPM_P1;HPM_P2
2023/10/16 00:01:16;;;;;;;1.85;0.80;;;21.20;41.80;;;;;;5008143;28;20026;-48
2023/10/16 00:03:42;;;;;;;1.77;1.10;;;21.20;41.80;;;;;;5008324;28;20046;-51
2023/10/16 00:06:12;;;;;;;2.10;1.10;;;21.20;41.80;;;;;;5007842;28;20022;-48
2023/10/16 00:08:48;;;;;;;2.05;1.10;;;21.20;41.90;;;;;;5010290;28;20037;-48
2023/10/16 00:11:18;;;;;;;1.15;0.80;;;21.20;41.80;;;;;;5012251;28;20033;-49
2023/10/16 00:13:47;;;;;;;1.10;0.80;;;21.20;41.90;;;;;;5011985;28;20087;-52
2023/10/16 00:16:21;;;;;;;1.85;0.98;;;21.20;41.80;;;;;;5011422;28;20042;-47
2023/10/16 00:18:47;;;;;;;1.40;0.90;;;21.20;41.80;;;;;;5010660;28;20057;-47
2023/10/16 00:21:14;;;;;;;1.85;0.90;;;21.10;41.80;;;;;;5011421;28;20026;-48
2023/10/16 00:23:41;;;;;;;1.67;0.93;;;21.20;41.90;;;;;;5011487;28;21878;-51
2023/10/16 00:26:10;;;;;;;1.77;1.10;;;21.20;41.90;;;;;;5011513;28;20104;-50
2023/10/16 00:28:37;;;;;;;1.70;0.90;;;21.20;41.90;;;;;;4994690;28;20026;-46
2023/10/16 00:31:05;;;;;;;1.85;0.80;;;21.10;41.80;;;;;;5010449;28;20053;-49
2023/10/16 00:33:33;;;;;;;2.67;0.90;;;21.10;41.90;;;;;;5011066;28;20212;-51
2023/10/16 00:36:00;;;;;;;1.20;0.75;;;21.10;42.00;;;;;;4995195;28;20448;-53
2023/10/16 00:38:26;;;;;;;1.63;0.70;;;21.10;42.00;;;;;;4994436;28;20034;-52
2023/10/16 00:43:34;;;;;;;2.28;0.80;;;21.20;42.30;;;;;;5010909;28;20034;-56
2023/10/16 00:46:08;;;;;;;1.70;0.90;;;21.20;42.30;;;;;;5008594;28;20151;-54
2023/10/16 00:48:39;;;;;;;1.42;0.80;;;21.20;42.40;;;;;;5009869;28;20029;-47
2023/10/16 00:51:08;;;;;;;1.38;0.70;;;21.20;42.30;;;;;;5010326;28;20032;-49
2023/10/16 00:53:39;;;;;;;1.58;0.82;;;21.20;42.20;;;;;;5010481;28;20041;-52
2023/10/16 00:56:08;;;;;;;1.38;0.90;;;21.20;42.10;;;;;;5008142;28;20030;-50
2023/10/16 00:58:35;;;;;;;2.88;0.80;;;21.20;42.00;;;;;;5011208;28;20041;-55
2023/10/16 01:01:08;;;;;;;1.23;0.73;;;21.20;42.00;;;;;;4993754;28;20034;-53
2023/10/16 01:03:36;;;;;;;1.65;0.80;;;21.20;42.20;;;;;;5010518;28;20434;-54
2023/10/16 01:06:03;;;;;;;1.20;0.70;;;21.20;42.90;;;;;;4991891;28;20471;-55
2023/10/16 01:08:29;;;;;;;1.92;0.70;;;21.20;42.30;;;;;;5000839;28;20159;-54
2023/10/16 01:10:58;;;;;;;1.25;0.82;;;21.30;42.40;;;;;;5011071;28;20119;-54
2023/10/16 01:13:28;;;;;;;0.82;0.60;;;21.30;42.30;;;;;;5011102;28;20060;-55
2023/10/16 01:15:56;;;;;;;1.00;0.60;;;21.30;42.30;;;;;;5011295;28;20041;-52
2023/10/16 01:18:23;;;;;;;1.50;0.88;;;21.30;42.30;;;;;;5008409;28;20036;-56
2023/10/16 01:20:50;;;;;;;4.18;0.93;;;21.30;42.40;;;;;;5010809;28;20980;-56
2023/10/16 01:23:17;;;;;;;1.75;0.90;;;21.30;42.50;;;;;;5011622;28;20029;-48
2023/10/16 01:25:46;;;;;;;1.33;0.77;;;21.30;42.50;;;;;;4993505;28;20022;-49
2023/10/16 01:28:15;;;;;;;1.23;0.70;;;21.30;42.60;;;;;;5010019;28;20034;-52
2023/10/16 01:30:45;;;;;;;2.30;0.93;;;21.30;42.50;;;;;;4991784;28;20018;-50
2023/10/16 01:33:13;;;;;;;1.70;1.02;;;21.30;42.50;;;;;;5009711;28;20441;-49
2023/10/16 01:35:39;;;;;;;1.25;0.80;;;21.30;42.50;;;;;;5010139;28;20049;-49
2023/10/16 01:38:24;;;;;;;1.30;0.88;;;21.20;42.40;;;;;;4993030;28;20445;-48
2023/10/16 01:41:13;;;;;;;4.55;1.30;;;21.30;42.50;;;;;;4991216;28;20037;-50
2023/10/16 01:43:40;;;;;;;1.02;0.68;;;21.20;42.40;;;;;;5010096;28;20077;-52
2023/10/16 01:46:08;;;;;;;1.65;0.70;;;21.20;42.40;;;;;;5009385;28;20471;-51
2023/10/16 01:48:37;;;;;;;2.42;0.80;;;21.20;42.50;;;;;;5010052;28;20112;-49
2023/10/16 01:51:05;;;;;;;2.15;0.80;;;21.20;42.60;;;;;;5009583;28;20166;-48
2023/10/16 01:53:36;;;;;;;1.50;0.70;;;21.20;42.70;;;;;;4992778;28;20463;-49
2023/10/16 01:56:12;;;;;;;1.58;0.95;;;21.20;42.80;;;;;;5010103;28;20030;-49
2023/10/16 01:58:44;;;;;;;3.53;0.85;;;21.20;42.90;;;;;;4990845;28;20080;-52
2023/10/16 02:01:11;;;;;;;1.92;1.02;;;21.20;43.00;;;;;;4991017;28;20054;-50
2023/10/16 02:03:38;;;;;;;2.30;0.95;;;21.20;43.10;;;;;;5008733;28;20453;-53
2023/10/16 02:06:05;;;;;;;2.72;0.90;;;21.20;43.10;;;;;;4993039;28;20364;-48
2023/10/16 02:08:31;;;;;;;1.63;1.02;;;21.20;43.00;;;;;;4993123;28;20029;-52
2023/10/16 02:10:57;;;;;;;2.50;1.13;;;21.20;42.90;;;;;;5008897;28;20048;-51
2023/10/16 02:13:23;;;;;;;2.38;1.00;;;21.20;42.90;;;;;;5007814;28;20109;-48
2023/10/16 02:15:49;;;;;;;2.05;0.90;;;21.20;42.90;;;;;;4992170;28;20501;-50
2023/10/16 02:18:23;;;;;;;1.52;0.95;;;21.20;42.90;;;;;;4993370;28;20029;-48
2023/10/16 02:20:51;;;;;;;2.17;1.00;;;21.10;42.90;;;;;;5006064;28;20334;-48
2023/10/16 02:23:18;;;;;;;2.15;1.10;;;21.10;42.90;;;;;;5010436;28;20073;-50
2023/10/16 02:25:45;;;;;;;1.90;1.00;;;21.10;42.90;;;;;;5008499;28;20105;-50
2023/10/16 02:28:13;;;;;;;2.42;1.10;;;21.10;42.90;;;;;;5007091;28;20067;-48
2023/10/16 02:30:41;;;;;;;2.90;0.80;;;21.10;42.90;;;;;;5009343;28;20030;-49
2023/10/16 02:33:23;;;;;;;2.40;0.80;;;21.10;42.90;;;;;;5007976;28;20042;-49
2023/10/16 02:35:50;;;;;;;2.53;0.77;;;21.10;42.90;;;;;;5008548;28;20026;-48
2023/10/16 02:38:23;;;;;;;1.38;0.70;;;21.10;42.90;;;;;;5009570;28;20022;-51
2023/10/16 02:40:53;;;;;;;1.40;0.80;;;21.10;42.90;;;;;;5007773;28;20048;-48
2023/10/16 02:43:20;;;;;;;1.55;0.80;;;21.10;42.90;;;;;;5008542;28;20109;-46
2023/10/16 02:45:52;;;;;;;1.30;0.70;;;21.10;42.90;;;;;;5009110;28;20104;-50
2023/10/16 02:48:20;;;;;;;1.52;1.00;;;21.10;42.90;;;;;;5008849;28;20030;-49
2023/10/16 02:50:50;;;;;;;2.92;0.80;;;21.10;42.90;;;;;;5007235;28;20447;-49
2023/10/16 02:53:21;;;;;;;1.75;1.02;;;21.10;42.90;;;;;;5008139;28;20034;-48
2023/10/16 02:55:49;;;;;;;2.50;1.02;;;21.10;42.90;;;;;;5009039;28;20523;-49
2023/10/16 02:58:15;;;;;;;4.38;1.80;;;21.00;42.90;;;;;;5008620;28;20049;-51
2023/10/16 03:00:49;;;;;;;7.53;2.17;;;21.10;42.90;;;;;;5008234;28;20033;-48
2023/10/16 03:03:17;;;;;;;4.85;2.42;;;21.10;43.00;;;;;;5007600;28;20361;-51
2023/10/16 03:05:45;;;;;;;4.32;2.15;;;21.00;42.90;;;;;;4990833;28;20048;-50
2023/10/16 03:08:13;;;;;;;4.47;1.88;;;21.00;42.90;;;;;;5009150;28;20436;-52
2023/10/16 03:10:40;;;;;;;3.72;1.50;;;21.00;42.90;;;;;;5008366;28;20029;-51
2023/10/16 03:13:06;;;;;;;7.25;1.75;;;21.00;42.90;;;;;;5008938;28;20037;-51
2023/10/16 03:15:47;;;;;;;7.05;1.60;;;21.00;42.90;;;;;;5008386;28;20413;-53
2023/10/16 03:18:22;;;;;;;3.33;1.60;;;21.00;42.90;;;;;;5008486;28;20041;-52
2023/10/16 03:21:00;;;;;;;1.92;1.17;;;21.00;42.90;;;;;;5008324;28;20038;-52
2023/10/16 03:23:28;;;;;;;2.92;1.05;;;21.00;42.90;;;;;;4989756;28;20341;-50
2023/10/16 03:25:56;;;;;;;2.58;1.08;;;21.00;42.90;;;;;;4991242;28;20041;-52
2023/10/16 03:28:22;;;;;;;2.30;1.10;;;21.00;42.90;;;;;;5007774;28;20153;-52
2023/10/16 03:30:49;;;;;;;3.83;1.10;;;21.00;42.90;;;;;;5008851;28;20128;-49
2023/10/16 03:33:15;;;;;;;4.18;1.27;;;21.00;42.80;;;;;;5007055;28;20172;-54
2023/10/16 03:35:46;;;;;;;2.17;0.98;;;21.00;42.90;;;;;;5007997;28;20129;-48
2023/10/16 03:38:20;;;;;;;2.72;1.25;;;21.00;42.90;;;;;;5007941;28;20030;-50
2023/10/16 03:40:50;;;;;;;1.63;1.00;;;21.00;42.90;;;;;;5007942;28;20045;-47
2023/10/16 03:43:22;;;;;;;2.50;0.95;;;21.00;42.90;;;;;;5009041;28;20037;-51
2023/10/16 03:45:49;;;;;;;1.83;0.93;;;21.00;42.90;;;;;;4996097;28;20054;-52
2023/10/16 03:48:17;;;;;;;1.60;0.80;;;21.00;42.90;;;;;;5012918;28;20064;-48
2023/10/16 03:50:43;;;;;;;2.33;1.00;;;21.00;42.90;;;;;;5010552;28;20034;-51
2023/10/16 03:53:13;;;;;;;2.53;1.00;;;21.00;43.00;;;;;;5011427;28;20034;-49
2023/10/16 03:55:43;;;;;;;1.63;0.90;;;21.00;43.00;;;;;;5012231;28;20452;-49
2023/10/16 03:58:10;;;;;;;2.75;1.10;;;21.00;43.00;;;;;;5012154;28;20117;-46
2023/10/16 04:00:53;;;;;;;2.00;0.95;;;21.00;43.00;;;;;;5011853;28;20095;-49
2023/10/16 04:03:19;;;;;;;1.35;1.00;;;20.90;42.90;;;;;;5011903;28;20076;-51
2023/10/16 04:05:50;;;;;;;0.90;0.60;;;20.90;42.90;;;;;;4993765;28;20084;-46
2023/10/16 04:08:26;;;;;;;2.58;1.10;;;20.90;42.90;;;;;;5008982;28;20045;-49
2023/10/16 04:10:56;;;;;;;2.45;1.30;;;21.00;43.00;;;;;;5011423;28;20460;-51
2023/10/16 04:13:31;;;;;;;1.67;0.77;;;20.90;43.00;;;;;;5011793;28;20052;-50
2023/10/16 04:18:30;;;;;;;1.42;0.80;;;20.90;43.00;;;;;;5011575;28;20034;-50
2023/10/16 04:29:34;;;;;;;1.52;0.80;;;20.90;43.00;;;;;;4950815;29;20035;-47
2023/10/16 04:34:31;;;;;;;1.45;0.73;;;20.90;43.00;;;;;;4985761;28;20104;-47
2023/10/16 04:47:47;;;;;;;1.38;0.70;;;20.90;43.00;;;;;;5011002;28;20120;-48
2023/10/16 04:50:15;;;;;;;1.10;0.60;;;20.80;43.00;;;;;;4993356;28;20027;-50
2023/10/16 05:01:55;;;;;;;0.63;0.60;;;20.90;43.10;;;;;;5011091;28;20106;-49
2023/10/16 05:04:59;;;;;;;1.85;0.90;;;20.80;43.00;;;;;;5009591;28;20038;-50
2023/10/16 05:07:37;;;;;;;1.50;0.80;;;20.80;43.00;;;;;;5010197;28;20100;-48
2023/10/16 05:10:43;;;;;;;2.15;0.77;;;20.80;43.10;;;;;;5010155;28;20026;-52
2023/10/16 05:18:46;;;;;;;1.00;0.63;;;20.80;43.10;;;;;;5009778;28;20029;-50
2023/10/16 06:16:21;;;;;;;1.35;0.55;;;20.80;43.20;;;;;;5008725;28;20050;-49
2023/10/16 06:18:48;;;;;;;1.10;0.70;;;20.80;43.20;;;;;;5008990;28;20041;-46
2023/10/16 06:21:17;;;;;;;3.08;1.00;;;20.80;43.30;;;;;;5009237;28;20052;-50
2023/10/16 06:23:48;;;;;;;3.05;0.80;;;20.80;43.30;;;;;;5008361;28;20044;-48
2023/10/16 06:26:18;;;;;;;1.63;0.73;;;20.70;43.20;;;;;;5008447;28;20030;-50
2023/10/16 06:28:47;;;;;;;1.27;0.90;;;20.80;43.30;;;;;;5008207;28;20451;-52
2023/10/16 06:31:23;;;;;;;1.23;0.68;;;20.80;43.30;;;;;;5009637;28;20029;-51
2023/10/16 06:33:56;;;;;;;2.35;1.00;;;20.80;43.40;;;;;;5009434;28;20022;-49
2023/10/16 06:36:24;;;;;;;2.00;1.02;;;20.80;43.40;;;;;;5007199;28;20461;-49
2023/10/16 06:38:51;;;;;;;3.08;0.82;;;20.80;43.40;;;;;;5009031;28;20044;-47
2023/10/16 06:41:23;;;;;;;3.58;1.02;;;20.80;43.40;;;;;;5008671;28;20371;-48
2023/10/16 06:43:49;;;;;;;1.85;0.82;;;20.80;43.40;;;;;;5008744;28;20051;-49
2023/10/16 06:46:23;;;;;;;1.25;0.90;;;20.70;43.30;;;;;;5009247;28;20053;-49
2023/10/16 06:48:53;;;;;;;1.42;0.90;;;20.80;43.40;;;;;;4990727;28;20519;-49
2023/10/16 06:51:25;;;;;;;1.05;0.70;;;20.80;43.40;;;;;;5009361;28;20029;-51
2023/10/16 06:54:01;;;;;;;1.40;0.60;;;20.80;43.40;;;;;;5008169;28;20064;-51
2023/10/16 06:56:31;;;;;;;2.08;0.90;;;20.80;43.40;;;;;;5008419;28;20058;-52
2023/10/16 06:58:57;;;;;;;2.17;1.05;;;20.80;44.00;;;;;;5008952;28;20083;-50
2023/10/16 07:01:25;;;;;;;1.83;0.90;;;20.80;43.40;;;;;;5009620;28;20026;-53
2023/10/16 07:03:54;;;;;;;1.90;1.00;;;20.80;43.40;;;;;;5007929;28;20046;-52
2023/10/16 07:06:24;;;;;;;3.10;1.00;;;20.80;43.40;;;;;;5008519;28;20034;-50
2023/10/16 07:08:53;;;;;;;2.17;1.10;;;20.80;43.50;;;;;;5007359;28;20412;-50
2023/10/16 07:11:21;;;;;;;1.63;1.00;;;20.80;43.70;;;;;;5009390;28;20028;-52
2023/10/16 07:13:47;;;;;;;1.30;0.80;;;20.80;43.80;;;;;;5008167;28;20443;-49
2023/10/16 07:16:15;;;;;;;1.10;0.65;;;20.80;44.10;;;;;;5011868;28;20528;-48
2023/10/16 07:18:45;;;;;;;1.77;1.00;;;20.80;44.20;;;;;;4995994;28;20061;-52
2023/10/16 07:21:17;;;;;;;2.13;0.90;;;20.90;44.10;;;;;;5011665;28;20030;-46
2023/10/16 07:23:43;;;;;;;2.30;0.90;;;20.90;44.00;;;;;;5010670;28;20025;-52
2023/10/16 07:26:10;;;;;;;1.58;0.75;;;20.90;44.00;;;;;;5013434;28;20034;-50
2023/10/16 07:28:38;;;;;;;1.65;0.70;;;20.90;44.00;;;;;;5013183;28;20061;-50
2023/10/16 07:31:05;;;;;;;1.13;0.65;;;20.90;43.90;;;;;;5013437;28;20030;-49
2023/10/16 07:33:32;;;;;;;1.52;0.95;;;20.90;44.00;;;;;;5013168;28;20407;-52
2023/10/16 07:36:01;;;;;;;1.90;0.80;;;20.90;44.00;;;;;;4995601;28;20056;-49
2023/10/16 07:38:28;;;;;;;1.67;0.70;;;20.90;44.30;;;;;;5011181;28;20034;-50
2023/10/16 07:40:57;;;;;;;3.13;0.93;;;21.00;44.30;;;;;;5011711;28;20041;-51
2023/10/16 07:43:28;;;;;;;2.17;1.13;;;21.00;44.30;;;;;;5012911;28;20034;-51
2023/10/16 07:48:52;;;;;;;1.75;0.90;;;21.00;44.20;;;;;;5013456;28;20026;-48
2023/10/16 07:51:20;;;;;;;2.20;1.07;;;21.00;44.10;;;;;;5009516;28;20030;-49
2023/10/16 07:53:49;;;;;;;2.30;0.90;;;21.00;44.10;;;;;;5013084;28;20355;-50
2023/10/16 07:56:19;;;;;;;2.53;0.80;;;21.00;44.10;;;;;;5011761;28;20125;-48
2023/10/16 07:58:48;;;;;;;2.17;1.02;;;21.00;44.10;;;;;;5012904;28;20025;-50
2023/10/16 08:01:32;;;;;;;2.88;1.00;;;21.00;44.10;;;;;;5011213;28;20322;-49
2023/10/16 08:03:58;;;;;;;2.97;1.20;;;21.00;44.00;;;;;;5009204;28;20503;-48
2023/10/16 08:06:25;;;;;;;1.33;0.70;;;21.00;44.00;;;;;;5005709;28;20061;-50
2023/10/16 08:11:46;;;;;;;2.83;1.17;;;21.10;44.10;;;;;;5013065;28;20030;-46
2023/10/16 08:14:15;;;;;;;1.25;0.60;;;21.10;44.10;;;;;;5011441;28;20103;-51
2023/10/16 08:16:41;;;;;;;1.42;0.90;;;21.10;44.10;;;;;;5011966;28;20127;-47
2023/10/16 08:19:15;;;;;;;2.28;0.80;;;21.10;44.20;;;;;;5010851;28;20571;-49
2023/10/16 08:21:42;;;;;;;2.60;0.95;;;21.10;44.20;;;;;;5008015;28;20045;-48
2023/10/16 08:24:13;;;;;;;1.92;0.98;;;21.10;44.20;;;;;;5005487;28;20049;-47
2023/10/16 08:26:43;;;;;;;1.80;1.00;;;21.10;44.20;;;;;;5006450;28;20464;-47
2023/10/16 08:29:12;;;;;;;1.38;0.95;;;21.00;44.20;;;;;;5005945;28;20469;-50
2023/10/16 08:31:41;;;;;;;2.85;1.00;;;21.10;44.30;;;;;;5017274;28;20087;-46
2023/10/16 08:34:19;;;;;;;1.98;1.00;;;21.10;44.30;;;;;;4997702;28;20345;-52
2023/10/16 08:36:52;;;;;;;1.38;0.80;;;21.00;44.30;;;;;;5016064;28;20026;-50
2023/10/16 08:39:19;;;;;;;1.10;0.70;;;21.00;44.30;;;;;;5017153;28;20030;-50
2023/10/16 08:41:52;;;;;;;2.58;1.00;;;21.10;44.40;;;;;;5000167;28;20373;-50
2023/10/16 08:44:19;;;;;;;1.85;0.70;;;21.00;44.40;;;;;;4999827;28;20034;-49
2023/10/16 08:47:32;;;;;;;1.58;0.82;;;21.00;44.50;;;;;;5013512;28;20026;-49
2023/10/16 08:49:39;;;;;;;1.60;0.70;;;21.00;44.50;;;;;;5003411;28;20445;-52
2023/10/16 08:52:08;;;;;;;2.13;0.70;;;21.00;44.50;;;;;;4995200;28;20116;-52
2023/10/16 08:55:00;;;;;;;2.63;0.93;;;21.00;44.50;;;;;;5011701;28;20433;-46
2023/10/16 08:57:26;;;;;;;1.70;0.70;;;21.00;44.60;;;;;;5012531;28;20040;-49
2023/10/16 08:59:52;;;;;;;1.98;0.70;;;21.00;44.60;;;;;;5012161;28;20121;-47
2023/10/16 09:02:24;;;;;;;1.30;0.80;;;21.00;44.60;;;;;;5011897;28;20041;-49
2023/10/16 09:04:54;;;;;;;1.10;0.63;;;21.00;44.60;;;;;;5012785;28;20050;-46
2023/10/16 09:07:20;;;;;;;1.85;0.60;;;21.00;44.60;;;;;;4998342;28;20342;-52
2023/10/16 09:09:49;;;;;;;2.03;0.80;;;21.00;44.60;;;;;;5011666;28;20112;-50
2023/10/16 09:12:27;;;;;;;1.20;0.60;;;21.00;44.60;;;;;;5011850;28;20120;-50
2023/10/16 09:15:05;;;;;;;0.90;0.50;;;21.00;44.50;;;;;;5013093;28;20022;-50
2023/10/16 09:17:35;;;;;;;1.42;0.60;;;21.00;44.50;;;;;;5014242;28;20034;-51
2023/10/16 09:20:13;;;;;;;1.55;0.80;;;21.00;44.50;;;;;;4995176;28;20054;-48
2023/10/16 09:22:45;;;;;;;0.77;0.50;;;21.00;44.50;;;;;;4994708;28;20025;-51
2023/10/16 09:25:15;;;;;;;1.85;0.60;;;21.00;44.50;;;;;;5010473;28;20057;-48
2023/10/16 09:27:42;;;;;;;0.80;0.50;;;21.00;44.50;;;;;;5010316;28;20033;-49
2023/10/16 09:30:18;;;;;;;0.50;0.40;;;21.00;44.50;;;;;;4993658;28;20360;-49
2023/10/16 09:32:48;;;;;;;2.75;0.60;;;21.00;44.40;;;;;;5011215;28;20030;-49
2023/10/16 09:35:18;;;;;;;1.38;0.60;;;21.00;44.40;;;;;;5011103;28;20489;-51
2023/10/16 09:37:52;;;;;;;2.28;0.68;;;21.00;44.40;;;;;;5010269;28;20026;-49
2023/10/16 09:43:06;;;;;;;1.27;0.52;;;21.00;44.40;;;;;;5010418;28;20148;-47
2023/10/16 09:45:36;;;;;;;1.33;0.80;;;21.00;44.40;;;;;;4998550;28;20073;-48
2023/10/16 09:48:08;;;;;;;1.63;0.70;;;21.00;44.40;;;;;;5016413;28;20104;-46
2023/10/16 09:50:38;;;;;;;2.30;0.80;;;21.00;44.40;;;;;;5015725;28;20322;-49
2023/10/16 09:53:09;;;;;;;2.10;0.60;;;21.00;44.40;;;;;;5015748;28;20048;-48
2023/10/16 09:55:39;;;;;;;1.17;0.50;;;21.00;44.30;;;;;;5015904;28;20376;-49
2023/10/16 09:58:10;;;;;;;1.05;0.50;;;21.00;44.30;;;;;;5015485;28;20411;-52
2023/10/16 10:00:40;;;;;;;1.98;0.80;;;21.00;44.30;;;;;;4998616;28;20033;-45
2023/10/16 10:03:09;;;;;;;1.35;0.60;;;21.00;44.30;;;;;;5015568;28;20434;-47
2023/10/16 10:05:48;;;;;;;1.05;0.50;;;21.00;44.30;;;;;;5015904;28;20053;-51
2023/10/16 10:08:27;;;;;;;1.20;0.50;;;21.00;44.30;;;;;;5015198;28;20021;-52
2023/10/16 10:11:17;;;;;;;1.67;0.60;;;21.00;44.40;;;;;;5013688;28;20088;-51
2023/10/16 10:14:08;;;;;;;0.93;0.50;;;21.00;44.40;;;;;;5010147;28;20322;-50
2023/10/16 10:16:35;;;;;;;1.25;0.60;;;21.00;44.40;;;;;;5011705;28;20060;-50
2023/10/16 10:19:04;;;;;;;0.93;0.40;;;21.00;44.40;;;;;;5011587;28;20022;-48
2023/10/16 10:21:44;;;;;;;2.63;0.60;;;21.00;44.40;;;;;;5010308;28;20038;-52
2023/10/16 10:24:15;;;;;;;1.30;0.70;;;21.00;44.30;;;;;;5008388;28;20152;-51
2023/10/16 10:26:50;;;;;;;0.43;0.40;;;21.00;44.30;;;;;;5009812;28;20048;-52
2023/10/16 10:29:20;;;;;;;1.30;0.50;;;21.00;44.30;;;;;;5010497;28;20053;-52
2023/10/16 10:31:48;;;;;;;0.60;0.30;;;21.00;44.30;;;;;;5008473;28;20040;-53
2023/10/16 10:34:22;;;;;;;1.17;0.43;;;21.00;44.20;;;;;;4993057;28;20026;-47
2023/10/16 10:36:49;;;;;;;1.33;0.50;;;21.00;44.20;;;;;;5009310;28;20034;-48
2023/10/16 10:39:36;;;;;;;1.40;0.40;;;21.00;44.20;;;;;;5010408;28;20112;-50
2023/10/16 10:42:04;;;;;;;1.02;0.35;;;21.00;44.10;;;;;;5009459;28;20042;-49
2023/10/16 10:44:39;;;;;;;0.55;0.40;;;21.00;44.20;;;;;;5009737;28;20468;-51
2023/10/16 10:47:18;;;;;;;;;;;21.00;44.20;;;;;;5008672;28;20089;-52
2023/10/16 10:49:44;;;;;;;0.90;0.47;;;21.00;44.20;;;;;;5007884;28;19910;-48
2023/10/16 10:52:12;;;;;;;1.15;0.50;;;21.00;44.20;;;;;;5014219;28;20041;-48
2023/10/16 10:54:48;;;;;;;0.85;0.40;;;21.00;44.10;;;;;;5015081;28;20036;-47
2023/10/16 10:57:19;;;;;;;1.52;0.50;;;21.00;44.10;;;;;;5015061;28;20065;-47
2023/10/16 10:59:48;;;;;;;0.55;0.35;;;21.10;44.10;;;;;;5013793;28;20040;-48
2023/10/16 11:04:53;;;;;;;0.55;0.30;;;21.00;44.00;;;;;;5014244;28;20030;-49
2023/10/16 11:07:39;;;;;;;0.88;0.50;;;21.00;44.00;;;;;;5013862;28;20346;-48
2023/10/16 11:10:06;;;;;;;0.82;0.40;;;21.00;43.90;;;;;;5014362;28;20033;-49
2023/10/16 11:12:32;;;;;;;1.02;0.47;;;21.00;43.90;;;;;;5014023;28;20021;-50
2023/10/16 11:15:01;;;;;;;0.22;0.20;;;21.00;43.80;;;;;;5012501;28;20038;-46
2023/10/16 11:17:34;;;;;;;0.70;0.30;;;21.00;43.70;;;;;;5013515;28;20055;-48
2023/10/16 11:22:46;;;;;;;0.65;0.30;;;21.10;43.60;;;;;;5010688;28;20029;-50
2023/10/16 11:25:13;;;;;;;0.80;0.32;;;21.10;43.60;;;;;;5008779;28;20046;-51
2023/10/16 11:27:42;;;;;;;0.80;0.38;;;21.00;43.50;;;;;;5008479;28;20053;-48
2023/10/16 11:30:18;;;;;;;1.20;0.40;;;21.10;43.50;;;;;;5010203;28;20405;-46
2023/10/16 11:32:47;;;;;;;0.65;0.30;;;21.10;43.50;;;;;;5013216;28;20030;-46
2023/10/16 11:35:17;;;;;;;1.13;0.40;;;21.10;43.50;;;;;;5014111;28;20025;-49
2023/10/16 11:37:50;;;;;;;0.50;0.30;;;21.10;43.60;;;;;;5013230;28;21446;-47
2023/10/16 11:40:18;;;;;;;1.20;0.32;;;21.10;43.80;;;;;;5014129;28;20049;-48
2023/10/16 11:42:45;;;;;;;1.08;0.40;;;21.10;43.90;;;;;;5004141;28;20372;-48
2023/10/16 11:45:18;;;;;;;0.77;0.40;;;21.20;44.10;;;;;;5013848;28;20096;-46
2023/10/16 11:47:44;;;;;;;1.27;0.40;;;21.20;44.20;;;;;;5010581;28;20029;-49
2023/10/16 11:50:17;;;;;;;1.05;0.40;;;21.20;44.30;;;;;;5014363;28;20099;-46
2023/10/16 11:52:43;;;;;;;0.63;0.40;;;21.20;44.30;;;;;;5014184;28;20104;-46
2023/10/16 11:55:09;;;;;;;0.70;0.30;;;21.20;44.20;;;;;;5013861;28;20034;-47
2023/10/16 11:57:35;;;;;;;0.75;0.40;;;21.20;44.20;;;;;;5013719;28;20030;-51
2023/10/16 12:00:15;;;;;;;1.02;0.40;;;21.20;44.20;;;;;;5013780;28;20432;-48
2023/10/16 12:02:46;;;;;;;0.68;0.35;;;21.20;44.20;;;;;;5013874;28;20456;-47
2023/10/16 12:05:13;;;;;;;0.70;0.38;;;21.20;44.20;;;;;;5015683;28;20042;-50
2023/10/16 12:07:43;;;;;;;1.17;0.40;;;21.20;44.10;;;;;;5016161;28;20030;-47
2023/10/16 12:10:15;;;;;;;1.13;0.35;;;21.20;44.10;;;;;;5017374;28;20412;-51
2023/10/16 12:12:41;;;;;;;2.10;0.40;;;21.20;44.10;;;;;;5016773;28;20038;-52
2023/10/16 12:15:10;;;;;;;1.10;0.50;;;21.20;44.00;;;;;;5008537;28;20119;-52
2023/10/16 12:17:36;;;;;;;2.85;0.68;;;21.20;44.20;;;;;;5017221;28;20088;-50
2023/10/16 12:20:10;;;;;;;0.73;0.30;;;21.30;44.30;;;;;;5013452;28;20088;-53
2023/10/16 12:22:39;;;;;;;1.63;0.40;;;21.30;44.20;;;;;;5012483;28;20049;-53
2023/10/16 12:25:09;;;;;;;1.30;0.40;;;21.30;44.20;;;;;;5015121;28;20137;-50
2023/10/16 12:27:38;;;;;;;1.25;0.55;;;21.30;44.10;;;;;;5017333;28;20100;-48
2023/10/16 12:30:05;;;;;;;0.60;0.40;;;21.30;44.10;;;;;;5016193;28;20021;-53
2023/10/16 12:32:32;;;;;;;3.50;0.43;;;21.40;44.10;;;;;;5016479;28;20033;-50
2023/10/16 12:35:00;;;;;;;2.78;0.40;;;21.40;44.00;;;;;;5017150;28;20030;-51
2023/10/16 12:37:27;;;;;;;0.88;0.40;;;21.40;44.00;;;;;;5016496;28;20399;-48
2023/10/16 12:39:55;;;;;;;1.27;0.50;;;21.40;44.00;;;;;;5016512;28;20038;-53
2023/10/16 12:42:21;;;;;;;3.40;0.30;;;21.40;44.00;;;;;;5015293;28;20030;-48
2023/10/16 12:44:47;;;;;;;3.40;0.30;;;21.40;43.80;;;;;;5015515;28;20357;-48
2023/10/16 12:47:13;;;;;;;1.23;0.40;;;21.40;43.80;;;;;;5013302;28;20026;-48
2023/10/16 12:49:39;;;;;;;1.00;0.35;;;21.40;43.60;;;;;;5016296;28;20385;-48
2023/10/16 12:52:05;;;;;;;2.60;0.30;;;21.40;43.60;;;;;;5016168;28;20030;-50
2023/10/16 12:54:35;;;;;;;0.73;0.30;;;21.40;43.50;;;;;;5016906;28;20113;-52
2023/10/16 12:57:02;;;;;;;2.83;0.60;;;21.40;43.40;;;;;;5013931;28;20026;-48
2023/10/16 12:59:28;;;;;;;1.25;0.40;;;21.40;43.30;;;;;;5016626;28;20362;-49
2023/10/16 13:01:54;;;;;;;1.48;0.52;;;21.40;43.20;;;;;;5015201;28;20073;-55
2023/10/16 13:04:20;;;;;;;1.08;0.40;;;21.40;43.10;;;;;;5016175;28;20038;-48
2023/10/16 13:06:46;;;;;;;0.95;0.47;;;21.40;43.10;;;;;;5015806;28;20025;-47
2023/10/16 13:09:16;;;;;;;1.25;0.40;;;21.30;43.10;;;;;;5015279;28;20032;-48
2023/10/16 13:11:43;;;;;;;0.98;0.40;;;21.40;43.10;;;;;;5013136;28;20110;-53
2023/10/16 13:14:11;;;;;;;1.35;0.30;;;21.40;43.00;;;;;;5017093;28;20029;-52
2023/10/16 13:16:41;;;;;;;0.50;0.20;;;21.40;43.00;;;;;;5015686;28;20065;-47
2023/10/16 13:19:09;;;;;;;1.63;0.40;;;21.40;42.90;;;;;;5001379;28;20342;-49
2023/10/16 13:21:38;;;;;;;1.20;0.40;;;21.40;42.90;;;;;;5017993;28;20063;-51
2023/10/16 13:24:19;;;;;;;0.82;0.40;;;21.40;42.80;;;;;;5027085;28;20036;-55
2023/10/16 13:26:53;;;;;;;1.33;0.50;;;21.40;42.80;;;;;;5016642;28;20137;-50
2023/10/16 13:29:21;;;;;;;1.67;0.50;;;21.40;43.40;;;;;;5016098;28;20026;-55
2023/10/16 13:31:47;;;;;;;2.83;0.30;;;21.40;43.60;;;;;;5016336;28;20121;-49
2023/10/16 13:34:15;;;;;;;1.30;0.45;;;21.40;43.70;;;;;;5016205;28;20109;-47
2023/10/16 13:37:01;;;;;;;4.47;0.40;;;21.50;43.70;;;;;;5016174;28;20041;-53
2023/10/16 13:39:48;;;;;;;3.42;0.70;;;21.50;43.70;;;;;;5015655;28;20041;-48
2023/10/16 13:42:14;;;;;;;0.80;0.40;;;21.50;43.60;;;;;;5015314;28;20042;-51
2023/10/16 13:44:41;;;;;;;3.63;0.60;;;21.50;43.60;;;;;;5015991;28;20042;-50
2023/10/16 13:47:08;;;;;;;1.77;0.70;;;21.50;43.60;;;;;;5015637;28;20046;-51
2023/10/16 13:49:37;;;;;;;3.03;0.47;;;21.40;43.40;;;;;;5015911;28;20487;-52
2023/10/16 13:52:07;;;;;;;2.22;0.50;;;21.50;43.40;;;;;;5012762;28;20498;-52
2023/10/16 13:54:40;;;;;;;1.50;0.60;;;21.50;43.40;;;;;;5015724;28;20545;-49
2023/10/16 13:57:07;;;;;;;1.63;0.50;;;21.50;43.40;;;;;;5014075;28;20038;-50
2023/10/16 13:59:35;;;;;;;0.98;0.30;;;21.50;43.30;;;;;;5015707;28;20053;-52
2023/10/16 14:02:05;;;;;;;1.58;0.65;;;21.50;43.30;;;;;;4993292;28;20034;-51
2023/10/16 14:04:34;;;;;;;3.28;0.60;;;21.50;43.20;;;;;;5009846;28;20041;-48
2023/10/16 14:06:59;;;;;;;1.33;0.40;;;21.40;43.10;;;;;;5008922;28;20037;-52
2023/10/16 14:09:32;;;;;;;0.60;0.30;;;21.50;43.20;;;;;;5011478;28;20356;-56
2023/10/16 14:11:59;;;;;;;0.55;0.30;;;21.40;43.10;;;;;;5008390;28;20041;-51
2023/10/16 14:14:27;;;;;;;1.10;0.45;;;21.50;43.20;;;;;;5007277;28;20048;-49
2023/10/16 14:17:02;;;;;;;1.35;0.40;;;21.50;43.10;;;;;;5010005;28;20046;-50
2023/10/16 14:19:29;;;;;;;1.42;0.45;;;21.40;43.10;;;;;;5011004;28;20101;-51
2023/10/16 14:21:56;;;;;;;2.90;0.88;;;21.50;43.10;;;;;;5009409;28;20025;-51
2023/10/16 14:24:24;;;;;;;1.00;0.40;;;21.40;43.00;;;;;;5006554;28;20112;-53
2023/10/16 14:27:00;;;;;;;1.40;0.50;;;21.40;42.90;;;;;;5003330;28;20044;-54
2023/10/16 14:29:27;;;;;;;3.03;0.50;;;21.40;42.90;;;;;;4990952;28;20044;-49
2023/10/16 14:31:57;;;;;;;1.05;0.30;;;21.40;42.90;;;;;;4996822;28;20037;-48
2023/10/16 14:34:25;;;;;;;0.88;0.35;;;21.40;42.90;;;;;;5014248;28;20032;-49
2023/10/16 14:36:53;;;;;;;1.15;0.50;;;21.40;42.90;;;;;;5013413;28;20362;-48
2023/10/16 14:39:27;;;;;;;1.67;0.50;;;21.40;42.90;;;;;;5009351;28;20087;-49
2023/10/16 14:41:54;;;;;;;1.50;0.70;;;21.40;42.90;;;;;;4991694;28;21055;-51
2023/10/16 14:44:22;;;;;;;1.45;0.50;;;21.40;43.00;;;;;;5008433;28;20499;-51
2023/10/16 14:46:48;;;;;;;0.75;0.52;;;21.40;43.00;;;;;;5008366;28;20048;-49
2023/10/16 14:49:14;;;;;;;1.77;0.60;;;21.40;43.00;;;;;;5007913;28;20026;-50
2023/10/16 14:51:40;;;;;;;0.57;0.43;;;21.40;42.90;;;;;;5009689;28;20113;-52
2023/10/16 14:54:12;;;;;;;1.25;0.50;;;21.40;42.90;;;;;;5012939;28;20042;-56